createdAt,value
2023-05-24T04:03:23.379Z,20.32
2023-05-24T04:05:55.185Z,20.36
2023-05-24T04:08:22.817Z,20.33
2023-05-24T04:10:50.469Z,20.78
2023-05-24T04:13:18.271Z,20.67
2023-05-24T04:15:45.967Z,21.01
2023-05-24T04:18:16.407Z,21.32
2023-05-24T04:20:47.494Z,21.68
2023-05-24T04:23:17.972Z,21.83
2023-05-24T04:25:52.129Z,21.49
2023-05-24T04:28:29.360Z,21.48
2023-05-24T04:31:00.479Z,21.78
2023-05-24T06:29:27.924Z,30.43
2023-05-24T06:31:55.704Z,29.85
2023-05-24T06:34:23.182Z,31.43
2023-05-24T06:36:54.340Z,33.66
2023-05-24T06:39:22.719Z,35.04
2023-05-24T06:41:51.938Z,35.75
2023-05-24T06:44:32.381Z,36.59
2023-05-24T06:47:03.130Z,35.36
2023-05-24T06:49:33.789Z,34.85
2023-05-24T06:52:01.185Z,34.68
2023-05-24T06:54:28.712Z,31.43
2023-05-24T06:56:56.143Z,33.99
2023-05-24T06:59:23.668Z,36.52
2023-05-24T07:05:47.792Z,34.06
2023-05-24T07:08:20.622Z,35.57
2023-05-24T07:10:48.037Z,34.10
2023-05-24T07:13:15.525Z,33.05
2023-05-24T07:15:44.897Z,33.00
2023-05-24T07:18:17.973Z,34.90
2023-05-24T07:20:45.792Z,35.35
2023-05-24T07:23:14.613Z,35.57
2023-05-24T07:25:44.469Z,34.32
2023-05-24T07:28:18.346Z,34.90
2023-05-24T07:30:47.682Z,35.49
2023-05-24T07:33:18.299Z,37.12
2023-05-24T07:35:57.354Z,38.02
2023-05-24T07:38:24.768Z,38.80
2023-05-24T07:40:52.998Z,34.60
2023-05-24T07:43:20.637Z,35.17
2023-05-24T07:45:48.175Z,37.76
2023-05-24T07:48:16.489Z,35.73
2023-05-24T07:50:48.658Z,33.34
2023-05-24T07:53:16.468Z,36.18
2023-05-24T07:55:44.809Z,35.80
2023-05-24T07:58:12.525Z,34.85
2023-05-24T08:00:39.891Z,31.09
2023-05-24T08:03:07.716Z,31.58
2023-05-24T08:05:35.203Z,32.45
2023-05-24T08:08:02.957Z,35.53
2023-05-24T08:10:32.019Z,35.70
2023-05-24T08:12:59.297Z,32.94
2023-05-24T08:15:26.736Z,33.64
2023-05-24T08:17:54.172Z,34.09
2023-05-24T08:20:21.654Z,34.72
2023-05-24T08:22:51.327Z,34.95
2023-05-24T08:25:19.132Z,33.97
2023-05-24T08:27:46.563Z,33.96
2023-05-24T08:30:15.397Z,35.36
2023-05-24T08:32:46.310Z,34.70
2023-05-24T08:35:20.913Z,32.54
2023-05-24T08:37:49.676Z,31.79
2023-05-24T08:40:17.470Z,34.88
2023-05-24T08:42:45.311Z,30.85
2023-05-24T08:45:13.691Z,32.27
2023-05-24T08:47:41.289Z,29.50
2023-05-24T08:50:09.322Z,30.42
2023-05-24T08:52:37.000Z,30.34
2023-05-24T08:55:07.821Z,30.09
2023-05-24T08:57:40.013Z,29.67
2023-05-24T09:00:09.602Z,29.99
2023-05-24T09:02:39.813Z,30.47
2023-05-24T09:05:09.948Z,31.27
2023-05-24T09:07:37.811Z,32.36
2023-05-24T09:10:06.323Z,33.57
2023-05-24T09:12:38.764Z,32.91
2023-05-24T09:15:08.997Z,31.72
2023-05-24T09:17:38.304Z,32.23
2023-05-24T09:20:11.474Z,31.53
2023-05-24T09:22:42.422Z,30.90
2023-05-24T09:25:11.306Z,30.59
2023-05-24T09:27:41.465Z,31.71
2023-05-24T09:30:12.959Z,31.32
2023-05-24T09:32:41.362Z,32.99
2023-05-24T09:35:10.030Z,30.75
2023-05-24T09:37:38.947Z,31.56
2023-05-24T09:40:07.400Z,32.98
2023-05-24T09:42:34.658Z,32.72
2023-05-24T09:45:04.952Z,32.90
2023-05-24T09:47:33.842Z,32.02
2023-05-24T09:50:02.495Z,32.42
2023-05-24T09:52:30.357Z,31.72
2023-05-24T09:55:05.214Z,33.25
2023-05-24T09:57:32.818Z,31.38
2023-05-24T10:00:08.503Z,31.48
2023-05-24T10:02:45.225Z,29.21
2023-05-24T10:05:18.999Z,31.43
2023-05-24T10:07:46.517Z,32.08
2023-05-24T10:10:13.902Z,32.37
2023-05-24T10:12:44.235Z,33.47
2023-05-24T10:15:12.438Z,32.74
2023-05-24T10:17:39.840Z,30.93
2023-05-24T10:20:08.548Z,32.62
2023-05-24T10:22:39.244Z,31.75
2023-05-24T10:25:08.852Z,30.66
2023-05-24T10:27:36.720Z,32.37
2023-05-24T10:30:09.439Z,30.14
2023-05-24T10:32:39.474Z,30.65
2023-05-24T10:35:07.770Z,30.62
2023-05-24T10:37:35.775Z,32.19
2023-05-24T10:40:05.524Z,32.80
2023-05-24T10:42:33.568Z,32.63
2023-05-24T10:45:16.217Z,32.20
2023-05-24T10:47:43.516Z,31.97
2023-05-24T10:50:17.987Z,31.70
2023-05-24T10:52:45.916Z,31.96
2023-05-24T10:55:13.404Z,30.88
2023-05-24T10:57:41.803Z,31.21
2023-05-24T11:00:33.911Z,31.00
2023-05-24T11:03:09.642Z,29.76
2023-05-24T11:05:46.833Z,30.23
2023-05-24T11:08:14.341Z,29.20
2023-05-24T11:10:43.574Z,29.73
2023-05-24T11:13:13.912Z,30.15
2023-05-24T11:15:49.941Z,30.28
2023-05-24T11:18:17.772Z,31.55
2023-05-24T11:20:48.272Z,31.27
2023-05-24T11:23:16.445Z,31.71
2023-05-24T11:25:45.287Z,31.54
2023-05-24T11:28:13.027Z,31.04
2023-05-24T11:30:41.438Z,30.91
2023-05-24T11:36:02.901Z,30.04
2023-05-24T11:38:30.277Z,30.37
2023-05-24T11:40:58.298Z,30.73
2023-05-24T11:43:25.714Z,30.82
2023-05-24T11:45:53.306Z,31.15
2023-05-24T11:48:21.175Z,32.16
2023-05-24T11:50:50.402Z,30.08
2023-05-24T11:53:21.335Z,30.92
2023-05-24T11:55:49.170Z,31.60
2023-05-24T11:58:16.734Z,30.77
2023-05-24T12:00:44.421Z,29.58
2023-05-24T12:03:14.523Z,31.00
2023-05-24T12:05:42.670Z,29.70
2023-05-24T12:08:12.691Z,29.98
2023-05-24T12:10:44.140Z,30.71
2023-05-24T12:13:40.278Z,30.35
2023-05-24T12:16:08.278Z,29.40
2023-05-24T12:18:37.025Z,30.45
2023-05-24T12:21:07.128Z,29.81
2023-05-24T12:23:35.496Z,30.66
2023-05-24T12:26:03.537Z,28.95
2023-05-24T12:28:39.078Z,29.88
2023-05-24T12:31:07.298Z,28.78
2023-05-24T12:33:34.835Z,29.36
2023-05-24T12:36:02.385Z,30.14
2023-05-24T12:38:31.586Z,30.90
2023-05-24T12:41:12.194Z,31.22
2023-05-24T12:43:43.698Z,30.48
2023-05-24T12:46:11.862Z,30.73
2023-05-24T12:48:40.145Z,29.89
2023-05-24T12:51:08.809Z,30.22
2023-05-24T12:53:36.713Z,30.03
2023-05-24T12:56:04.397Z,31.25
2023-05-24T12:58:32.082Z,30.43
2023-05-24T13:01:00.176Z,30.86
2023-05-24T13:03:27.976Z,29.98
2023-05-24T13:05:56.021Z,30.85
2023-05-24T13:08:23.697Z,30.39
2023-05-24T13:10:51.688Z,30.63
2023-05-24T13:13:21.498Z,29.90
2023-05-24T13:15:51.140Z,30.76
2023-05-24T13:18:19.508Z,30.50
2023-05-24T13:20:48.518Z,30.93
2023-05-24T13:23:17.193Z,31.04
2023-05-24T13:25:45.714Z,31.20
2023-05-24T13:28:13.719Z,31.11
2023-05-24T13:30:42.300Z,29.53
2023-05-24T13:33:10.112Z,30.16
2023-05-24T13:35:37.611Z,29.47
2023-05-24T13:38:05.289Z,30.31
2023-05-24T13:40:33.184Z,30.51
2023-05-24T13:43:01.625Z,29.89
2023-05-24T13:45:30.367Z,31.01
2023-05-24T13:48:04.013Z,30.37
2023-05-24T13:50:36.446Z,31.51
2023-05-24T13:53:04.521Z,30.83
2023-05-24T13:55:34.280Z,31.79
2023-05-24T13:58:02.066Z,30.84
2023-05-24T14:00:29.544Z,31.23
2023-05-24T14:02:58.256Z,29.86
2023-05-24T14:05:28.165Z,30.13
2023-05-24T14:08:13.434Z,30.25
2023-05-24T14:10:41.155Z,30.46
2023-05-24T14:15:39.068Z,30.87
2023-05-24T14:18:08.530Z,31.04
2023-05-24T14:20:38.155Z,30.59
2023-05-24T14:23:07.025Z,31.20
2023-05-24T14:25:34.356Z,30.90
2023-05-24T14:28:01.803Z,31.36
2023-05-24T14:30:30.923Z,31.37
2023-05-24T14:32:58.764Z,30.00
2023-05-24T14:35:26.489Z,30.67
2023-05-24T14:37:54.082Z,30.39
2023-05-24T14:40:21.702Z,29.83
2023-05-24T14:42:49.115Z,30.45
2023-05-24T14:45:16.902Z,31.30
2023-05-24T14:47:47.927Z,30.52
2023-05-24T14:50:15.411Z,30.62
2023-05-24T14:52:42.805Z,31.00
2023-05-24T14:55:10.389Z,31.24
2023-05-24T14:57:37.733Z,30.88
2023-05-24T15:00:05.849Z,30.43
2023-05-24T15:02:34.689Z,30.99
2023-05-24T15:05:06.182Z,30.74
2023-05-24T15:07:36.698Z,30.30
2023-05-24T15:10:04.232Z,29.49
2023-05-24T15:12:31.741Z,28.85
2023-05-24T15:14:59.260Z,28.73
2023-05-24T15:17:27.372Z,28.81
2023-05-24T15:19:56.761Z,28.76
2023-05-24T15:27:11.873Z,29.03
2023-05-24T15:30:30.464Z,28.79
2023-05-24T15:50:12.891Z,28.64
2023-05-24T15:53:15.405Z,28.74
2023-05-24T15:57:39.045Z,29.26
2023-05-24T15:57:42.375Z,28.87
2023-05-24T16:00:07.349Z,28.72
2023-05-24T16:02:40.589Z,28.81
2023-05-24T16:05:09.491Z,29.67
2023-05-24T16:07:37.016Z,28.96
2023-05-24T16:10:04.888Z,28.83
2023-05-24T16:12:33.133Z,29.26
2023-05-24T16:15:01.198Z,28.71
2023-05-24T16:17:29.614Z,28.91
2023-05-24T16:20:00.016Z,29.01
2023-05-24T16:22:27.787Z,29.37
2023-05-24T16:24:55.793Z,28.79
2023-05-24T16:27:23.600Z,29.07
2023-05-24T16:29:51.139Z,28.29
2023-05-24T16:32:19.658Z,28.58
2023-05-24T16:34:56.589Z,28.64
2023-05-24T16:37:34.315Z,28.81
2023-05-24T16:40:01.951Z,28.45
2023-05-24T16:42:29.918Z,28.55
2023-05-24T16:44:58.791Z,28.88
2023-05-24T16:47:28.777Z,28.19
2023-05-24T16:49:58.456Z,28.43
2023-05-24T16:52:28.784Z,28.44
2023-05-24T16:54:56.602Z,28.36
2023-05-24T16:57:25.831Z,28.61
2023-05-24T16:59:53.884Z,28.61
2023-05-24T17:02:24.954Z,28.27
2023-05-24T17:04:53.829Z,28.00
2023-05-24T17:07:21.455Z,27.95
2023-05-24T17:09:50.427Z,27.90
2023-05-24T17:12:18.171Z,27.51
2023-05-24T17:14:49.652Z,27.21
2023-05-24T17:17:17.226Z,27.28
2023-05-24T17:19:44.642Z,27.71
2023-05-24T17:22:14.919Z,27.44
2023-05-24T17:24:45.934Z,27.58
2023-05-24T17:27:13.698Z,27.34
2023-05-24T17:29:41.198Z,27.52
2023-05-24T17:32:08.734Z,27.85
2023-05-24T17:34:37.785Z,28.02
2023-05-24T17:37:05.319Z,27.82
2023-05-24T17:39:32.953Z,28.13
2023-05-24T17:42:01.209Z,28.07
2023-05-24T17:44:28.669Z,27.95
2023-05-24T17:46:57.525Z,28.14
2023-05-24T17:49:24.994Z,27.97
2023-05-24T17:51:52.608Z,27.97
2023-05-24T17:54:22.639Z,27.81
2023-05-24T17:56:50.215Z,27.55
2023-05-24T17:59:17.720Z,27.44
2023-05-24T18:01:46.976Z,27.45
2023-05-24T18:04:14.588Z,27.36
2023-05-24T18:06:44.309Z,25.60
2023-05-24T18:09:16.971Z,24.71
2023-05-24T18:11:51.402Z,25.56
2023-05-24T18:14:28.180Z,25.77
2023-05-24T18:17:10.886Z,25.30
2023-05-24T18:19:38.855Z,25.31
2023-05-24T18:22:12.314Z,24.72
2023-05-24T18:24:49.254Z,24.69
2023-05-24T18:27:17.302Z,24.72
2023-05-24T18:29:51.655Z,24.39
2023-05-24T18:32:21.739Z,24.42
2023-05-24T18:35:05.359Z,23.90
2023-05-24T18:37:46.494Z,24.23
2023-05-24T18:40:26.546Z,24.72
2023-05-24T18:43:00.147Z,24.45
2023-05-24T18:45:33.006Z,24.49
2023-05-24T18:48:10.840Z,24.83
2023-05-24T18:50:39.664Z,25.10
2023-05-24T18:53:15.735Z,25.13
2023-05-24T18:55:43.635Z,24.79
2023-05-24T18:58:11.244Z,24.83
2023-05-24T19:00:38.678Z,24.50
2023-05-24T19:03:11.083Z,24.91
2023-05-24T19:05:45.614Z,24.49
2023-05-24T19:08:13.764Z,24.80
2023-05-24T19:10:44.912Z,24.99
2023-05-24T19:13:18.768Z,24.95
2023-05-24T19:15:46.412Z,25.19
2023-05-24T19:18:14.516Z,25.09
2023-05-24T19:20:45.067Z,24.85
2023-05-24T19:23:13.026Z,25.22
2023-05-24T19:25:42.206Z,25.16
2023-05-24T19:28:10.481Z,25.08
2023-05-24T19:30:37.861Z,25.23
2023-05-24T19:33:10.538Z,25.18
2023-05-24T19:35:37.946Z,24.78
2023-05-24T19:38:10.496Z,25.19
2023-05-24T19:40:40.809Z,25.17
2023-05-24T19:43:08.733Z,25.25
2023-05-24T19:45:37.390Z,25.12
2023-05-24T19:48:09.612Z,25.22
2023-05-24T19:50:39.462Z,25.27
2023-05-24T19:53:07.008Z,25.54
2023-05-24T19:55:40.929Z,25.18
2023-05-24T19:58:10.290Z,25.37
2023-05-24T20:00:39.366Z,25.35
2023-05-24T20:03:07.484Z,25.27
2023-05-24T20:05:35.222Z,25.33
2023-05-24T20:08:06.850Z,25.09
2023-05-24T20:10:39.014Z,24.99
2023-05-24T20:13:11.493Z,25.50
2023-05-24T20:15:41.129Z,25.53
2023-05-24T20:18:10.160Z,25.40
2023-05-24T20:20:37.884Z,25.56
2023-05-24T20:23:05.605Z,25.51
2023-05-24T20:25:33.365Z,25.54
2023-05-24T20:28:01.799Z,25.41
2023-05-24T20:30:32.665Z,26.03
2023-05-24T20:33:01.899Z,25.95
2023-05-24T20:35:29.458Z,26.14
2023-05-24T20:37:56.973Z,26.01
2023-05-24T20:40:27.317Z,25.94
2023-05-24T20:42:58.540Z,25.76
2023-05-24T20:45:29.384Z,25.36
2023-05-24T20:47:58.554Z,25.79
2023-05-24T20:50:29.837Z,25.73
2023-05-24T20:52:58.667Z,26.02
2023-05-24T20:55:28.827Z,25.98
2023-05-24T20:58:00.248Z,26.09
2023-05-24T21:00:27.679Z,26.07
2023-05-24T21:03:00.527Z,26.11
2023-05-24T21:05:28.052Z,25.93
2023-05-24T21:07:55.928Z,25.80
2023-05-24T21:10:27.968Z,25.53
2023-05-24T21:12:55.787Z,25.63
2023-05-24T21:15:25.586Z,25.73
2023-05-24T21:17:53.672Z,25.60
2023-05-24T21:20:28.762Z,25.66
2023-05-24T21:22:56.227Z,25.78
2023-05-24T21:25:28.780Z,25.89
2023-05-24T21:27:56.822Z,25.87
2023-05-24T21:30:24.521Z,25.98
2023-05-24T21:32:52.003Z,25.68
2023-05-24T21:35:19.483Z,25.84
2023-05-24T21:37:48.185Z,25.13
2023-05-24T21:40:15.856Z,25.21
2023-05-24T21:42:44.356Z,25.52
2023-05-24T21:45:12.851Z,25.17
2023-05-24T21:47:40.312Z,25.10
2023-05-24T21:50:08.005Z,24.93
2023-05-24T21:52:35.438Z,23.90
2023-05-24T21:55:02.884Z,24.85
2023-05-24T21:57:31.732Z,24.92
2023-05-24T21:59:59.099Z,24.26
2023-05-24T22:02:26.554Z,24.17
2023-05-24T22:04:53.903Z,24.41
2023-05-24T22:07:21.272Z,24.35
2023-05-24T22:09:48.809Z,24.38
2023-05-24T22:12:16.196Z,24.61
2023-05-24T22:14:43.418Z,24.91
2023-05-24T22:17:11.386Z,24.79
2023-05-24T22:19:41.528Z,24.74
2023-05-24T22:22:12.615Z,24.91
2023-05-24T22:24:40.696Z,25.11
2023-05-24T22:27:15.922Z,24.79
2023-05-24T22:29:43.517Z,24.68
2023-05-24T22:32:10.979Z,24.34
2023-05-24T22:34:38.429Z,24.69
2023-05-24T22:37:05.876Z,24.74
2023-05-24T22:39:33.422Z,24.32
2023-05-24T22:42:01.649Z,24.49
2023-05-24T22:44:28.980Z,24.58
2023-05-24T22:46:56.530Z,24.53
2023-05-24T22:49:24.694Z,24.33
2023-05-24T22:51:53.560Z,24.09
2023-05-24T22:54:20.915Z,24.35
2023-05-24T22:56:48.214Z,24.31
2023-05-24T22:59:15.689Z,24.34
2023-05-24T23:01:44.841Z,24.47
2023-05-24T23:04:21.135Z,24.67
2023-05-24T23:06:53.251Z,24.67
2023-05-24T23:09:29.424Z,24.88
2023-05-24T23:11:58.448Z,24.73
2023-05-24T23:14:26.159Z,24.69
2023-05-24T23:16:53.648Z,24.65
2023-05-24T23:19:20.925Z,24.57
2023-05-24T23:21:48.199Z,24.88
2023-05-24T23:24:15.955Z,25.18
2023-05-24T23:26:43.799Z,25.02
2023-05-24T23:29:11.449Z,25.46
2023-05-24T23:31:38.938Z,25.21
2023-05-24T23:34:06.256Z,25.23
2023-05-24T23:36:33.869Z,25.35
2023-05-24T23:39:01.070Z,25.32
2023-05-24T23:41:28.437Z,25.50
2023-05-24T23:43:55.929Z,25.38
2023-05-24T23:46:23.429Z,24.82
2023-05-24T23:48:50.925Z,25.32
2023-05-24T23:51:19.578Z,25.55
2023-05-24T23:53:46.832Z,25.70
2023-05-24T23:56:14.210Z,25.81
2023-05-24T23:58:41.962Z,25.59
